sensor_id;sensor_type;location;lat;lon;timestamp;temperature;humidity
14210;DHT22;7188;56.070;12.698;2024-01-11T00:01:46;-0.10;99.90
14210;DHT22;7188;56.070;12.698;2024-01-11T00:04:12;-0.10;99.90
14210;DHT22;7188;56.070;12.698;2024-01-11T00:07:09;0.00;99.90
14210;DHT22;7188;56.070;12.698;2024-01-11T00:09:39;0.00;99.90
14210;DHT22;7188;56.070;12.698;2024-01-11T00:12:05;0.10;99.90
14210;DHT22;7188;56.070;12.698;2024-01-11T00:14:31;0.10;99.90
14210;DHT22;7188;56.070;12.698;2024-01-11T00:16:57;0.10;99.90
14210;DHT22;7188;56.070;12.698;2024-01-11T00:19:22;0.10;99.90
14210;DHT22;7188;56.070;12.698;2024-01-11T00:21:48;0.10;99.90
14210;DHT22;7188;56.070;12.698;2024-01-11T00:24:13;0.10;99.90
14210;DHT22;7188;56.070;12.698;2024-01-11T00:26:39;0.20;99.90
14210;DHT22;7188;56.070;12.698;2024-01-11T00:29:05;0.20;99.90
14210;DHT22;7188;56.070;12.698;2024-01-11T00:31:30;0.20;99.90
14210;DHT22;7188;56.070;12.698;2024-01-11T00:33:56;0.20;99.90
14210;DHT22;7188;56.070;12.698;2024-01-11T00:36:21;0.20;99.90
14210;DHT22;7188;56.070;12.698;2024-01-11T00:38:47;0.20;99.90
14210;DHT22;7188;56.070;12.698;2024-01-11T00:41:13;0.30;99.90
14210;DHT22;7188;56.070;12.698;2024-01-11T00:43:39;0.30;99.90
14210;DHT22;7188;56.070;12.698;2024-01-11T00:46:04;0.30;99.90
14210;DHT22;7188;56.070;12.698;2024-01-11T00:48:30;0.30;99.90
14210;DHT22;7188;56.070;12.698;2024-01-11T00:50:55;0.30;99.90
14210;DHT22;7188;56.070;12.698;2024-01-11T00:53:21;0.30;99.90
14210;DHT22;7188;56.070;12.698;2024-01-11T00:55:46;0.30;99.90
14210;DHT22;7188;56.070;12.698;2024-01-11T00:58:12;0.30;99.90
14210;DHT22;7188;56.070;12.698;2024-01-11T01:00:38;0.40;99.90
14210;DHT22;7188;56.070;12.698;2024-01-11T01:03:04;0.40;99.90
14210;DHT22;7188;56.070;12.698;2024-01-11T01:05:29;0.40;99.90
14210;DHT22;7188;56.070;12.698;2024-01-11T01:07:55;0.40;99.90
14210;DHT22;7188;56.070;12.698;2024-01-11T01:10:21;0.40;99.90
14210;DHT22;7188;56.070;12.698;2024-01-11T01:12:46;0.40;99.90
14210;DHT22;7188;56.070;12.698;2024-01-11T01:15:12;0.40;99.90
14210;DHT22;7188;56.070;12.698;2024-01-11T01:17:39;0.50;99.90
14210;DHT22;7188;56.070;12.698;2024-01-11T01:20:06;0.50;99.90
14210;DHT22;7188;56.070;12.698;2024-01-11T01:22:31;0.50;99.90
14210;DHT22;7188;56.070;12.698;2024-01-11T01:24:57;0.50;99.90
14210;DHT22;7188;56.070;12.698;2024-01-11T01:27:22;0.50;99.90
14210;DHT22;7188;56.070;12.698;2024-01-11T01:29:48;0.60;99.90
14210;DHT22;7188;56.070;12.698;2024-01-11T01:32:14;0.50;99.90
14210;DHT22;7188;56.070;12.698;2024-01-11T01:34:40;0.50;99.90
14210;DHT22;7188;56.070;12.698;2024-01-11T01:37:05;0.50;99.90
14210;DHT22;7188;56.070;12.698;2024-01-11T01:39:31;0.50;99.90
14210;DHT22;7188;56.070;12.698;2024-01-11T01:41:57;0.50;99.90
14210;DHT22;7188;56.070;12.698;2024-01-11T01:44:22;0.50;99.90
14210;DHT22;7188;56.070;12.698;2024-01-11T01:46:48;0.50;99.90
14210;DHT22;7188;56.070;12.698;2024-01-11T01:49:14;0.50;99.90
14210;DHT22;7188;56.070;12.698;2024-01-11T01:51:43;0.50;99.90
14210;DHT22;7188;56.070;12.698;2024-01-11T01:54:09;0.50;99.90
14210;DHT22;7188;56.070;12.698;2024-01-11T01:56:35;0.50;99.90
14210;DHT22;7188;56.070;12.698;2024-01-11T01:59:01;0.50;99.90
14210;DHT22;7188;56.070;12.698;2024-01-11T02:01:28;0.50;99.90
14210;DHT22;7188;56.070;12.698;2024-01-11T02:03:54;0.50;99.90
14210;DHT22;7188;56.070;12.698;2024-01-11T02:06:25;0.50;99.90
14210;DHT22;7188;56.070;12.698;2024-01-11T02:08:52;0.50;99.90
14210;DHT22;7188;56.070;12.698;2024-01-11T02:11:21;0.50;99.90
14210;DHT22;7188;56.070;12.698;2024-01-11T02:13:50;0.50;99.90
14210;DHT22;7188;56.070;12.698;2024-01-11T02:16:16;0.60;99.90
14210;DHT22;7188;56.070;12.698;2024-01-11T02:18:41;0.60;99.90
14210;DHT22;7188;56.070;12.698;2024-01-11T02:21:09;0.60;99.90
14210;DHT22;7188;56.070;12.698;2024-01-11T02:23:42;0.50;99.90
14210;DHT22;7188;56.070;12.698;2024-01-11T02:26:11;0.60;99.90
14210;DHT22;7188;56.070;12.698;2024-01-11T02:28:37;0.60;99.90
14210;DHT22;7188;56.070;12.698;2024-01-11T02:31:02;0.60;99.90
14210;DHT22;7188;56.070;12.698;2024-01-11T02:33:28;0.60;99.90
14210;DHT22;7188;56.070;12.698;2024-01-11T02:36:10;0.60;99.90
14210;DHT22;7188;56.070;12.698;2024-01-11T02:38:36;0.60;99.90
14210;DHT22;7188;56.070;12.698;2024-01-11T02:41:03;0.60;99.90
14210;DHT22;7188;56.070;12.698;2024-01-11T02:43:30;0.60;99.90
14210;DHT22;7188;56.070;12.698;2024-01-11T02:45:56;0.60;99.90
14210;DHT22;7188;56.070;12.698;2024-01-11T02:48:27;0.60;99.90
14210;DHT22;7188;56.070;12.698;2024-01-11T02:50:53;0.60;99.90
14210;DHT22;7188;56.070;12.698;2024-01-11T02:53:19;0.60;99.90
14210;DHT22;7188;56.070;12.698;2024-01-11T02:55:45;0.60;99.90
14210;DHT22;7188;56.070;12.698;2024-01-11T02:58:10;0.60;99.90
14210;DHT22;7188;56.070;12.698;2024-01-11T03:00:36;0.60;99.90
14210;DHT22;7188;56.070;12.698;2024-01-11T03:03:01;0.60;99.90
14210;DHT22;7188;56.070;12.698;2024-01-11T03:05:27;0.60;99.90
14210;DHT22;7188;56.070;12.698;2024-01-11T03:07:53;0.60;99.90
14210;DHT22;7188;56.070;12.698;2024-01-11T03:10:19;0.60;99.90
14210;DHT22;7188;56.070;12.698;2024-01-11T03:12:44;0.60;99.90
14210;DHT22;7188;56.070;12.698;2024-01-11T03:15:10;0.60;99.90
14210;DHT22;7188;56.070;12.698;2024-01-11T03:17:35;0.60;99.90
14210;DHT22;7188;56.070;12.698;2024-01-11T03:20:01;0.60;99.90
14210;DHT22;7188;56.070;12.698;2024-01-11T03:22:28;0.60;99.90
14210;DHT22;7188;56.070;12.698;2024-01-11T03:24:54;0.60;99.90
14210;DHT22;7188;56.070;12.698;2024-01-11T03:27:20;0.60;99.90
14210;DHT22;7188;56.070;12.698;2024-01-11T03:29:45;0.50;99.90
14210;DHT22;7188;56.070;12.698;2024-01-11T03:32:11;0.50;99.90
14210;DHT22;7188;56.070;12.698;2024-01-11T03:34:39;0.50;99.90
14210;DHT22;7188;56.070;12.698;2024-01-11T03:37:04;0.50;99.90
14210;DHT22;7188;56.070;12.698;2024-01-11T03:39:30;0.50;99.90
14210;DHT22;7188;56.070;12.698;2024-01-11T03:41:56;0.50;99.90
14210;DHT22;7188;56.070;12.698;2024-01-11T03:44:22;0.50;99.90
14210;DHT22;7188;56.070;12.698;2024-01-11T03:47:00;0.50;99.90
14210;DHT22;7188;56.070;12.698;2024-01-11T03:49:25;0.60;99.90
14210;DHT22;7188;56.070;12.698;2024-01-11T03:51:51;0.50;99.90
14210;DHT22;7188;56.070;12.698;2024-01-11T03:54:17;0.60;99.90
14210;DHT22;7188;56.070;12.698;2024-01-11T03:56:42;0.50;99.90
14210;DHT22;7188;56.070;12.698;2024-01-11T03:59:08;0.50;99.90
14210;DHT22;7188;56.070;12.698;2024-01-11T04:01:37;0.40;99.90
14210;DHT22;7188;56.070;12.698;2024-01-11T04:04:03;0.40;99.90
14210;DHT22;7188;56.070;12.698;2024-01-11T04:06:29;0.40;99.90
14210;DHT22;7188;56.070;12.698;2024-01-11T04:08:54;0.40;99.90
14210;DHT22;7188;56.070;12.698;2024-01-11T04:11:20;0.40;99.90
14210;DHT22;7188;56.070;12.698;2024-01-11T04:13:46;0.30;99.90
14210;DHT22;7188;56.070;12.698;2024-01-11T04:16:11;0.40;99.90
14210;DHT22;7188;56.070;12.698;2024-01-11T04:18:37;0.40;99.90
14210;DHT22;7188;56.070;12.698;2024-01-11T04:21:03;0.40;99.90
14210;DHT22;7188;56.070;12.698;2024-01-11T04:23:28;0.30;99.90
14210;DHT22;7188;56.070;12.698;2024-01-11T04:25:55;0.30;99.90
14210;DHT22;7188;56.070;12.698;2024-01-11T04:28:20;0.30;99.90
14210;DHT22;7188;56.070;12.698;2024-01-11T04:30:46;0.30;99.90
14210;DHT22;7188;56.070;12.698;2024-01-11T04:33:11;0.30;99.90
14210;DHT22;7188;56.070;12.698;2024-01-11T04:35:48;0.30;99.90
14210;DHT22;7188;56.070;12.698;2024-01-11T04:38:14;0.30;99.90
14210;DHT22;7188;56.070;12.698;2024-01-11T04:40:39;0.20;99.90
14210;DHT22;7188;56.070;12.698;2024-01-11T04:43:05;0.20;99.90
14210;DHT22;7188;56.070;12.698;2024-01-11T04:45:33;0.20;99.90
14210;DHT22;7188;56.070;12.698;2024-01-11T04:47:58;0.20;99.90
14210;DHT22;7188;56.070;12.698;2024-01-11T04:50:24;0.20;99.90
14210;DHT22;7188;56.070;12.698;2024-01-11T04:52:49;0.20;99.90
14210;DHT22;7188;56.070;12.698;2024-01-11T04:55:15;0.20;99.90
14210;DHT22;7188;56.070;12.698;2024-01-11T04:57:41;0.20;99.90
14210;DHT22;7188;56.070;12.698;2024-01-11T05:00:07;0.10;99.90
14210;DHT22;7188;56.070;12.698;2024-01-11T05:02:32;0.10;99.90
14210;DHT22;7188;56.070;12.698;2024-01-11T05:04:58;0.10;99.90
14210;DHT22;7188;56.070;12.698;2024-01-11T05:07:24;0.10;99.90
14210;DHT22;7188;56.070;12.698;2024-01-11T05:09:49;0.10;99.90
14210;DHT22;7188;56.070;12.698;2024-01-11T05:12:15;0.00;99.90
14210;DHT22;7188;56.070;12.698;2024-01-11T05:14:41;-0.10;99.90
14210;DHT22;7188;56.070;12.698;2024-01-11T05:17:07;-0.10;99.90
14210;DHT22;7188;56.070;12.698;2024-01-11T05:19:33;-0.10;99.90
14210;DHT22;7188;56.070;12.698;2024-01-11T05:21:58;-0.10;99.90
14210;DHT22;7188;56.070;12.698;2024-01-11T05:24:24;-0.20;99.90
14210;DHT22;7188;56.070;12.698;2024-01-11T05:26:50;-0.20;99.90
14210;DHT22;7188;56.070;12.698;2024-01-11T05:29:16;-0.20;99.90
14210;DHT22;7188;56.070;12.698;2024-01-11T05:31:41;-0.30;99.90
14210;DHT22;7188;56.070;12.698;2024-01-11T05:34:07;-0.30;99.90
14210;DHT22;7188;56.070;12.698;2024-01-11T05:36:34;-0.30;99.90
14210;DHT22;7188;56.070;12.698;2024-01-11T05:38:59;-0.30;99.90
14210;DHT22;7188;56.070;12.698;2024-01-11T05:41:25;-0.20;99.90
14210;DHT22;7188;56.070;12.698;2024-01-11T05:43:51;-0.20;99.90
14210;DHT22;7188;56.070;12.698;2024-01-11T05:46:16;-0.20;99.90
14210;DHT22;7188;56.070;12.698;2024-01-11T05:48:42;-0.30;99.90
14210;DHT22;7188;56.070;12.698;2024-01-11T05:51:08;-0.20;99.90
14210;DHT22;7188;56.070;12.698;2024-01-11T05:53:47;-0.30;99.90
14210;DHT22;7188;56.070;12.698;2024-01-11T05:56:12;-0.30;99.90
14210;DHT22;7188;56.070;12.698;2024-01-11T05:58:39;-0.30;99.90
14210;DHT22;7188;56.070;12.698;2024-01-11T06:01:05;-0.30;99.90
14210;DHT22;7188;56.070;12.698;2024-01-11T06:03:30;-0.40;99.90
14210;DHT22;7188;56.070;12.698;2024-01-11T06:06:00;-0.40;99.90
14210;DHT22;7188;56.070;12.698;2024-01-11T06:08:25;-0.50;99.90
14210;DHT22;7188;56.070;12.698;2024-01-11T06:10:52;-0.50;99.90
14210;DHT22;7188;56.070;12.698;2024-01-11T06:13:17;-0.50;99.90
14210;DHT22;7188;56.070;12.698;2024-01-11T06:15:44;-0.50;99.90
14210;DHT22;7188;56.070;12.698;2024-01-11T06:18:09;-0.60;99.90
14210;DHT22;7188;56.070;12.698;2024-01-11T06:20:35;-0.50;99.90
14210;DHT22;7188;56.070;12.698;2024-01-11T06:23:01;-0.50;99.90
14210;DHT22;7188;56.070;12.698;2024-01-11T06:25:26;-0.50;99.90
14210;DHT22;7188;56.070;12.698;2024-01-11T06:27:52;-0.60;99.90
14210;DHT22;7188;56.070;12.698;2024-01-11T06:30:17;-0.60;99.90
14210;DHT22;7188;56.070;12.698;2024-01-11T06:32:43;-0.50;99.90
14210;DHT22;7188;56.070;12.698;2024-01-11T06:35:09;-0.50;99.90
14210;DHT22;7188;56.070;12.698;2024-01-11T06:37:34;-0.50;99.90
14210;DHT22;7188;56.070;12.698;2024-01-11T06:40:00;-0.50;99.90
14210;DHT22;7188;56.070;12.698;2024-01-11T06:42:26;-0.40;99.90
14210;DHT22;7188;56.070;12.698;2024-01-11T06:44:52;-0.40;99.90
14210;DHT22;7188;56.070;12.698;2024-01-11T06:47:17;-0.50;99.90
14210;DHT22;7188;56.070;12.698;2024-01-11T06:49:44;-0.60;99.90
14210;DHT22;7188;56.070;12.698;2024-01-11T06:52:10;-0.60;99.90
14210;DHT22;7188;56.070;12.698;2024-01-11T06:54:36;-0.60;99.90
14210;DHT22;7188;56.070;12.698;2024-01-11T06:57:02;-0.60;99.90
14210;DHT22;7188;56.070;12.698;2024-01-11T06:59:27;-0.60;99.90
14210;DHT22;7188;56.070;12.698;2024-01-11T07:01:53;-0.60;99.90
14210;DHT22;7188;56.070;12.698;2024-01-11T07:04:18;-0.50;99.90
14210;DHT22;7188;56.070;12.698;2024-01-11T07:06:44;-0.50;99.90
14210;DHT22;7188;56.070;12.698;2024-01-11T07:09:10;-0.50;99.90
14210;DHT22;7188;56.070;12.698;2024-01-11T07:11:36;-0.50;99.90
14210;DHT22;7188;56.070;12.698;2024-01-11T07:14:02;-0.50;99.90
14210;DHT22;7188;56.070;12.698;2024-01-11T07:16:29;-0.50;99.90
14210;DHT22;7188;56.070;12.698;2024-01-11T07:18:55;-0.60;99.90
14210;DHT22;7188;56.070;12.698;2024-01-11T07:21:24;-0.70;99.90
14210;DHT22;7188;56.070;12.698;2024-01-11T07:24:24;-0.80;99.90
14210;DHT22;7188;56.070;12.698;2024-01-11T07:26:50;-0.80;99.90
14210;DHT22;7188;56.070;12.698;2024-01-11T07:29:25;-0.80;99.90
14210;DHT22;7188;56.070;12.698;2024-01-11T07:31:56;-0.80;99.90
14210;DHT22;7188;56.070;12.698;2024-01-11T07:34:22;-0.80;99.90
14210;DHT22;7188;56.070;12.698;2024-01-11T07:36:48;-0.80;99.90
14210;DHT22;7188;56.070;12.698;2024-01-11T07:39:14;-0.80;99.90
14210;DHT22;7188;56.070;12.698;2024-01-11T07:41:40;-0.80;99.90
14210;DHT22;7188;56.070;12.698;2024-01-11T07:44:05;-0.80;99.90
14210;DHT22;7188;56.070;12.698;2024-01-11T07:46:31;-0.70;99.90
14210;DHT22;7188;56.070;12.698;2024-01-11T07:48:56;-0.70;99.90
14210;DHT22;7188;56.070;12.698;2024-01-11T07:51:24;-0.80;99.90
14210;DHT22;7188;56.070;12.698;2024-01-11T07:53:49;-0.80;99.90
14210;DHT22;7188;56.070;12.698;2024-01-11T07:56:15;-0.80;99.90
14210;DHT22;7188;56.070;12.698;2024-01-11T07:58:40;-0.90;99.90
14210;DHT22;7188;56.070;12.698;2024-01-11T08:01:07;-0.90;99.90
14210;DHT22;7188;56.070;12.698;2024-01-11T08:03:33;-0.80;99.90
14210;DHT22;7188;56.070;12.698;2024-01-11T08:06:00;-0.80;99.90
14210;DHT22;7188;56.070;12.698;2024-01-11T08:08:26;-0.80;99.90
14210;DHT22;7188;56.070;12.698;2024-01-11T08:10:53;-0.80;99.90
14210;DHT22;7188;56.070;12.698;2024-01-11T08:13:19;-0.80;99.90
14210;DHT22;7188;56.070;12.698;2024-01-11T08:15:46;-0.80;99.90
14210;DHT22;7188;56.070;12.698;2024-01-11T08:18:12;-0.70;99.90
14210;DHT22;7188;56.070;12.698;2024-01-11T08:20:39;-0.80;99.90
14210;DHT22;7188;56.070;12.698;2024-01-11T08:23:04;-0.70;99.90
14210;DHT22;7188;56.070;12.698;2024-01-11T08:25:30;-0.70;99.90
14210;DHT22;7188;56.070;12.698;2024-01-11T08:27:56;-0.60;99.90
14210;DHT22;7188;56.070;12.698;2024-01-11T08:30:21;-0.60;99.90
14210;DHT22;7188;56.070;12.698;2024-01-11T08:32:48;-0.60;99.90
14210;DHT22;7188;56.070;12.698;2024-01-11T08:35:14;-0.50;99.90
14210;DHT22;7188;56.070;12.698;2024-01-11T08:37:40;-0.60;99.90
14210;DHT22;7188;56.070;12.698;2024-01-11T08:40:11;-0.50;99.90
14210;DHT22;7188;56.070;12.698;2024-01-11T08:42:37;-0.60;99.90
14210;DHT22;7188;56.070;12.698;2024-01-11T08:45:05;-0.50;99.90
14210;DHT22;7188;56.070;12.698;2024-01-11T08:47:33;-0.50;99.90
14210;DHT22;7188;56.070;12.698;2024-01-11T08:49:59;-0.50;99.90
14210;DHT22;7188;56.070;12.698;2024-01-11T08:52:25;-0.50;99.90
14210;DHT22;7188;56.070;12.698;2024-01-11T08:54:53;-0.50;99.90
14210;DHT22;7188;56.070;12.698;2024-01-11T08:57:18;-0.40;99.90
14210;DHT22;7188;56.070;12.698;2024-01-11T08:59:44;-0.40;99.90
14210;DHT22;7188;56.070;12.698;2024-01-11T09:02:10;-0.30;99.90
14210;DHT22;7188;56.070;12.698;2024-01-11T09:04:36;-0.30;99.90
14210;DHT22;7188;56.070;12.698;2024-01-11T09:07:02;-0.30;99.90
14210;DHT22;7188;56.070;12.698;2024-01-11T09:09:43;-0.30;99.90
14210;DHT22;7188;56.070;12.698;2024-01-11T09:12:09;-0.30;99.90
14210;DHT22;7188;56.070;12.698;2024-01-11T09:14:35;-0.20;99.90
14210;DHT22;7188;56.070;12.698;2024-01-11T09:17:22;-0.20;99.90
14210;DHT22;7188;56.070;12.698;2024-01-11T09:19:48;-0.20;99.90
14210;DHT22;7188;56.070;12.698;2024-01-11T09:22:14;-0.20;99.90
14210;DHT22;7188;56.070;12.698;2024-01-11T09:24:39;-0.20;99.90
14210;DHT22;7188;56.070;12.698;2024-01-11T09:27:05;-0.10;99.90
14210;DHT22;7188;56.070;12.698;2024-01-11T09:29:30;-0.10;99.90
14210;DHT22;7188;56.070;12.698;2024-01-11T09:31:56;-0.10;99.90
14210;DHT22;7188;56.070;12.698;2024-01-11T09:34:22;0.00;99.90
14210;DHT22;7188;56.070;12.698;2024-01-11T09:36:47;0.00;99.90
14210;DHT22;7188;56.070;12.698;2024-01-11T09:39:13;0.00;99.90
14210;DHT22;7188;56.070;12.698;2024-01-11T09:41:42;0.10;99.90
14210;DHT22;7188;56.070;12.698;2024-01-11T09:44:10;0.10;99.90
14210;DHT22;7188;56.070;12.698;2024-01-11T09:46:36;0.10;99.90
14210;DHT22;7188;56.070;12.698;2024-01-11T09:49:02;0.10;99.90
14210;DHT22;7188;56.070;12.698;2024-01-11T09:51:29;0.10;99.90
14210;DHT22;7188;56.070;12.698;2024-01-11T09:53:55;0.20;99.90
14210;DHT22;7188;56.070;12.698;2024-01-11T09:56:22;0.20;99.90
14210;DHT22;7188;56.070;12.698;2024-01-11T09:58:50;0.20;99.90
14210;DHT22;7188;56.070;12.698;2024-01-11T10:01:16;0.20;99.90
14210;DHT22;7188;56.070;12.698;2024-01-11T10:03:43;0.30;99.90
14210;DHT22;7188;56.070;12.698;2024-01-11T10:06:10;0.30;99.90
14210;DHT22;7188;56.070;12.698;2024-01-11T10:08:36;0.30;99.90
14210;DHT22;7188;56.070;12.698;2024-01-11T10:11:02;0.30;99.90
14210;DHT22;7188;56.070;12.698;2024-01-11T10:13:30;0.40;99.90
14210;DHT22;7188;56.070;12.698;2024-01-11T10:19:43;0.40;99.90
14210;DHT22;7188;56.070;12.698;2024-01-11T10:22:08;0.40;99.90
14210;DHT22;7188;56.070;12.698;2024-01-11T10:24:38;0.40;99.90
14210;DHT22;7188;56.070;12.698;2024-01-11T10:27:04;0.40;99.90
14210;DHT22;7188;56.070;12.698;2024-01-11T10:29:33;0.40;99.90
14210;DHT22;7188;56.070;12.698;2024-01-11T10:32:03;0.40;99.90
14210;DHT22;7188;56.070;12.698;2024-01-11T10:34:29;0.40;99.90
14210;DHT22;7188;56.070;12.698;2024-01-11T10:36:55;0.40;99.90
14210;DHT22;7188;56.070;12.698;2024-01-11T10:39:25;0.40;99.90
14210;DHT22;7188;56.070;12.698;2024-01-11T10:41:53;0.40;99.90
14210;DHT22;7188;56.070;12.698;2024-01-11T10:44:22;0.40;99.90
14210;DHT22;7188;56.070;12.698;2024-01-11T10:47:13;0.50;99.90
14210;DHT22;7188;56.070;12.698;2024-01-11T10:49:40;0.50;99.90
14210;DHT22;7188;56.070;12.698;2024-01-11T10:52:07;0.50;99.90
14210;DHT22;7188;56.070;12.698;2024-01-11T10:54:34;0.50;99.90
14210;DHT22;7188;56.070;12.698;2024-01-11T10:57:00;0.50;99.90
14210;DHT22;7188;56.070;12.698;2024-01-11T10:59:29;0.60;99.90
14210;DHT22;7188;56.070;12.698;2024-01-11T11:01:58;0.60;99.90
14210;DHT22;7188;56.070;12.698;2024-01-11T11:04:45;0.60;99.90
14210;DHT22;7188;56.070;12.698;2024-01-11T11:07:12;0.60;99.90
14210;DHT22;7188;56.070;12.698;2024-01-11T11:09:40;0.70;99.90
14210;DHT22;7188;56.070;12.698;2024-01-11T11:12:10;0.70;99.90
14210;DHT22;7188;56.070;12.698;2024-01-11T11:14:36;0.80;99.90
14210;DHT22;7188;56.070;12.698;2024-01-11T11:17:03;0.70;99.90
14210;DHT22;7188;56.070;12.698;2024-01-11T11:19:30;0.70;99.90
14210;DHT22;7188;56.070;12.698;2024-01-11T11:21:56;0.70;99.90
14210;DHT22;7188;56.070;12.698;2024-01-11T11:24:22;0.70;99.90
14210;DHT22;7188;56.070;12.698;2024-01-11T11:26:48;0.70;99.90
14210;DHT22;7188;56.070;12.698;2024-01-11T11:29:15;0.80;99.90
14210;DHT22;7188;56.070;12.698;2024-01-11T11:31:47;0.80;99.90
14210;DHT22;7188;56.070;12.698;2024-01-11T11:34:13;0.80;99.90
14210;DHT22;7188;56.070;12.698;2024-01-11T11:36:46;0.90;99.90
14210;DHT22;7188;56.070;12.698;2024-01-11T11:39:11;0.90;99.90
14210;DHT22;7188;56.070;12.698;2024-01-11T11:41:39;1.00;99.90
14210;DHT22;7188;56.070;12.698;2024-01-11T11:44:05;0.90;99.90
14210;DHT22;7188;56.070;12.698;2024-01-11T11:46:34;1.00;99.90
14210;DHT22;7188;56.070;12.698;2024-01-11T11:49:00;1.00;99.90
14210;DHT22;7188;56.070;12.698;2024-01-11T11:51:26;1.10;99.90
14210;DHT22;7188;56.070;12.698;2024-01-11T11:53:53;1.20;99.90
14210;DHT22;7188;56.070;12.698;2024-01-11T11:56:20;1.20;99.90
14210;DHT22;7188;56.070;12.698;2024-01-11T11:58:47;1.30;99.90
14210;DHT22;7188;56.070;12.698;2024-01-11T12:01:15;1.30;99.90
14210;DHT22;7188;56.070;12.698;2024-01-11T12:03:43;1.30;99.90
14210;DHT22;7188;56.070;12.698;2024-01-11T12:06:19;1.40;99.90
14210;DHT22;7188;56.070;12.698;2024-01-11T12:08:47;1.40;99.90
14210;DHT22;7188;56.070;12.698;2024-01-11T12:11:20;1.50;99.90
14210;DHT22;7188;56.070;12.698;2024-01-11T12:13:50;1.60;99.90
14210;DHT22;7188;56.070;12.698;2024-01-11T12:16:16;1.70;99.90
14210;DHT22;7188;56.070;12.698;2024-01-11T12:18:42;1.80;99.90
14210;DHT22;7188;56.070;12.698;2024-01-11T12:21:08;1.90;99.90
14210;DHT22;7188;56.070;12.698;2024-01-11T12:23:34;1.90;99.90
14210;DHT22;7188;56.070;12.698;2024-01-11T12:26:03;1.90;99.90
14210;DHT22;7188;56.070;12.698;2024-01-11T12:28:33;1.90;99.90
14210;DHT22;7188;56.070;12.698;2024-01-11T12:30:59;1.90;99.90
14210;DHT22;7188;56.070;12.698;2024-01-11T12:33:26;2.00;99.90
14210;DHT22;7188;56.070;12.698;2024-01-11T12:35:51;2.00;99.90
14210;DHT22;7188;56.070;12.698;2024-01-11T12:38:17;2.10;99.90
14210;DHT22;7188;56.070;12.698;2024-01-11T12:40:43;2.10;99.90
14210;DHT22;7188;56.070;12.698;2024-01-11T12:43:11;2.10;99.90
14210;DHT22;7188;56.070;12.698;2024-01-11T12:45:38;2.20;99.90
14210;DHT22;7188;56.070;12.698;2024-01-11T12:48:07;2.20;99.90
14210;DHT22;7188;56.070;12.698;2024-01-11T12:50:38;2.20;99.90
14210;DHT22;7188;56.070;12.698;2024-01-11T12:56:01;2.20;99.90
14210;DHT22;7188;56.070;12.698;2024-01-11T12:58:27;2.20;99.90
14210;DHT22;7188;56.070;12.698;2024-01-11T13:00:54;2.20;99.90
14210;DHT22;7188;56.070;12.698;2024-01-11T13:03:20;2.20;99.90
14210;DHT22;7188;56.070;12.698;2024-01-11T13:05:46;2.20;99.90
14210;DHT22;7188;56.070;12.698;2024-01-11T13:08:12;2.20;99.90
14210;DHT22;7188;56.070;12.698;2024-01-11T13:10:38;2.20;99.90
14210;DHT22;7188;56.070;12.698;2024-01-11T13:13:04;2.20;99.90
14210;DHT22;7188;56.070;12.698;2024-01-11T13:15:31;2.20;99.90
14210;DHT22;7188;56.070;12.698;2024-01-11T13:18:02;2.20;99.90
14210;DHT22;7188;56.070;12.698;2024-01-11T13:20:40;2.20;99.90
14210;DHT22;7188;56.070;12.698;2024-01-11T13:23:14;2.20;99.90
14210;DHT22;7188;56.070;12.698;2024-01-11T13:25:41;2.20;99.90
14210;DHT22;7188;56.070;12.698;2024-01-11T13:28:07;2.10;99.90
14210;DHT22;7188;56.070;12.698;2024-01-11T13:30:32;2.20;99.90
14210;DHT22;7188;56.070;12.698;2024-01-11T13:32:58;2.10;99.90
14210;DHT22;7188;56.070;12.698;2024-01-11T13:35:24;2.10;99.90
14210;DHT22;7188;56.070;12.698;2024-01-11T13:37:50;2.10;99.90
14210;DHT22;7188;56.070;12.698;2024-01-11T13:40:29;2.00;99.90
14210;DHT22;7188;56.070;12.698;2024-01-11T13:42:55;2.00;99.90
14210;DHT22;7188;56.070;12.698;2024-01-11T13:45:22;2.00;99.90
14210;DHT22;7188;56.070;12.698;2024-01-11T13:47:48;2.00;99.90
14210;DHT22;7188;56.070;12.698;2024-01-11T13:53:20;2.00;99.90
14210;DHT22;7188;56.070;12.698;2024-01-11T13:55:57;1.90;99.90
14210;DHT22;7188;56.070;12.698;2024-01-11T13:58:23;1.90;99.90
14210;DHT22;7188;56.070;12.698;2024-01-11T14:00:49;2.00;99.90
14210;DHT22;7188;56.070;12.698;2024-01-11T14:03:16;2.20;99.90
14210;DHT22;7188;56.070;12.698;2024-01-11T14:05:42;2.20;99.90
14210;DHT22;7188;56.070;12.698;2024-01-11T14:08:07;2.00;99.90
14210;DHT22;7188;56.070;12.698;2024-01-11T14:10:48;2.00;99.90
14210;DHT22;7188;56.070;12.698;2024-01-11T14:13:14;1.90;99.90
14210;DHT22;7188;56.070;12.698;2024-01-11T14:15:39;1.90;99.90
14210;DHT22;7188;56.070;12.698;2024-01-11T14:18:06;1.80;99.90
14210;DHT22;7188;56.070;12.698;2024-01-11T14:20:33;1.70;99.90
14210;DHT22;7188;56.070;12.698;2024-01-11T14:22:59;1.70;99.90
14210;DHT22;7188;56.070;12.698;2024-01-11T14:25:25;1.70;99.90
14210;DHT22;7188;56.070;12.698;2024-01-11T14:27:51;1.70;99.90
14210;DHT22;7188;56.070;12.698;2024-01-11T14:30:18;1.60;99.90
14210;DHT22;7188;56.070;12.698;2024-01-11T14:32:44;1.60;99.90
14210;DHT22;7188;56.070;12.698;2024-01-11T14:35:16;1.50;99.90
14210;DHT22;7188;56.070;12.698;2024-01-11T14:37:43;1.50;99.90
14210;DHT22;7188;56.070;12.698;2024-01-11T14:40:10;1.50;99.90
14210;DHT22;7188;56.070;12.698;2024-01-11T14:42:36;1.40;99.90
14210;DHT22;7188;56.070;12.698;2024-01-11T14:45:02;1.40;99.90
14210;DHT22;7188;56.070;12.698;2024-01-11T14:47:29;1.40;99.90
14210;DHT22;7188;56.070;12.698;2024-01-11T14:49:54;1.40;99.90
14210;DHT22;7188;56.070;12.698;2024-01-11T14:52:20;1.30;99.90
14210;DHT22;7188;56.070;12.698;2024-01-11T14:54:46;1.30;99.90
14210;DHT22;7188;56.070;12.698;2024-01-11T14:57:13;1.20;99.90
14210;DHT22;7188;56.070;12.698;2024-01-11T14:59:38;1.20;99.90
14210;DHT22;7188;56.070;12.698;2024-01-11T15:02:04;1.10;99.90
14210;DHT22;7188;56.070;12.698;2024-01-11T15:04:30;1.10;99.90
14210;DHT22;7188;56.070;12.698;2024-01-11T15:06:56;1.00;99.90
14210;DHT22;7188;56.070;12.698;2024-01-11T15:09:22;1.00;99.90
14210;DHT22;7188;56.070;12.698;2024-01-11T15:11:47;1.20;99.90
14210;DHT22;7188;56.070;12.698;2024-01-11T15:14:13;1.20;99.90
14210;DHT22;7188;56.070;12.698;2024-01-11T15:16:39;1.10;99.90
14210;DHT22;7188;56.070;12.698;2024-01-11T15:19:05;1.00;99.90
14210;DHT22;7188;56.070;12.698;2024-01-11T15:21:31;1.00;99.90
14210;DHT22;7188;56.070;12.698;2024-01-11T15:23:57;1.00;99.90
14210;DHT22;7188;56.070;12.698;2024-01-11T15:26:26;0.90;99.90
14210;DHT22;7188;56.070;12.698;2024-01-11T15:28:52;0.90;99.90
14210;DHT22;7188;56.070;12.698;2024-01-11T15:31:18;1.30;99.90
14210;DHT22;7188;56.070;12.698;2024-01-11T15:33:43;1.30;99.90
14210;DHT22;7188;56.070;12.698;2024-01-11T15:36:11;1.20;99.90
14210;DHT22;7188;56.070;12.698;2024-01-11T15:38:36;1.10;99.90
14210;DHT22;7188;56.070;12.698;2024-01-11T15:41:02;1.00;99.90
14210;DHT22;7188;56.070;12.698;2024-01-11T15:43:28;0.90;99.90
14210;DHT22;7188;56.070;12.698;2024-01-11T15:45:54;0.80;99.90
14210;DHT22;7188;56.070;12.698;2024-01-11T15:48:19;0.70;99.90
14210;DHT22;7188;56.070;12.698;2024-01-11T15:50:45;0.50;99.90